Time;durP1;ratioP1;P1;durP2;ratioP2;P2;SDS_P1;SDS_P2;PMS_P1;PMS_P2;Temp;Humidity;BMP_temperature;BMP_pressure;BME280_temperature;BME280_humidity;BME280_pressure;Samples;Min_cycle;Max_cycle;Signal;HPM_P1;HPM_P2
2023/09/20 00:02:24;;;;;;;6.70;1.50;;;17.10;97.60;;;;;;6195607;22;90519;-79
2023/09/20 00:04:50;;;;;;;8.32;1.33;;;17.10;97.70;;;;;;6189413;22;87789;-79
2023/09/20 00:07:16;;;;;;;3.33;1.27;;;17.10;97.70;;;;;;6192489;22;87467;-79
2023/09/20 00:09:42;;;;;;;6.82;1.40;;;17.10;97.70;;;;;;6193304;22;88510;-79
2023/09/20 00:12:08;;;;;;;7.28;1.42;;;17.10;97.70;;;;;;6195123;22;87459;-79
2023/09/20 00:14:34;;;;;;;8.18;1.38;;;17.10;97.80;;;;;;6181782;22;88460;-78
2023/09/20 00:17:00;;;;;;;7.68;1.35;;;17.10;97.70;;;;;;6190165;22;87437;-79
2023/09/20 00:19:26;;;;;;;5.80;1.45;;;17.10;97.80;;;;;;6194448;22;87911;-80
2023/09/20 00:21:52;;;;;;;8.82;1.58;;;17.10;97.90;;;;;;6194789;22;87440;-80
2023/09/20 00:24:18;;;;;;;6.75;1.65;;;17.10;97.90;;;;;;6195730;22;86441;-80
2023/09/20 00:26:44;;;;;;;5.88;1.75;;;17.10;97.90;;;;;;6182432;22;87921;-78
2023/09/20 00:29:12;;;;;;;7.43;1.60;;;17.00;98.00;;;;;;6199552;22;88078;-78
2023/09/20 00:31:39;;;;;;;9.95;2.72;;;17.00;98.10;;;;;;6195246;22;87112;-79
2023/09/20 00:34:08;;;;;;;8.50;1.80;;;17.00;98.20;;;;;;6200107;22;86827;-76
2023/09/20 00:36:33;;;;;;;7.32;1.60;;;17.00;98.30;;;;;;6200913;22;86962;-79
2023/09/20 00:39:02;;;;;;;5.88;1.60;;;17.00;98.40;;;;;;6199388;22;87143;-78
2023/09/20 00:41:28;;;;;;;6.70;2.15;;;16.90;98.40;;;;;;6200230;22;87583;-79
2023/09/20 00:43:54;;;;;;;8.27;1.70;;;16.90;98.60;;;;;;6201709;22;86785;-78
2023/09/20 00:46:21;;;;;;;9.77;1.38;;;16.80;98.70;;;;;;6201933;22;86245;-78
2023/09/20 00:48:55;;;;;;;5.63;1.13;;;16.80;98.80;;;;;;6203177;22;87067;-80
2023/09/20 00:51:21;;;;;;;6.03;1.90;;;16.80;98.90;;;;;;6201668;22;87024;-78
2023/09/20 00:53:49;;;;;;;4.47;1.45;;;16.80;99.00;;;;;;6199900;22;87814;-79
2023/09/20 00:56:18;;;;;;;3.60;1.30;;;16.70;99.10;;;;;;6197870;22;88101;-79
2023/09/20 00:58:53;;;;;;;10.30;1.60;;;16.70;99.20;;;;;;6200458;22;86854;-78
2023/09/20 01:01:19;;;;;;;7.45;1.65;;;16.60;99.30;;;;;;6200801;22;87114;-80
2023/09/20 02:49:55;;;;;;;9.57;1.73;;;16.30;99.90;;;;;;6169277;22;88432;-91
2023/09/20 02:52:21;;;;;;;5.75;1.70;;;16.30;99.90;;;;;;6181544;22;88292;-91
2023/09/20 02:54:48;;;;;;;7.10;1.77;;;16.20;99.90;;;;;;6183594;22;88841;-92
2023/09/20 02:57:13;;;;;;;6.35;1.42;;;16.30;99.90;;;;;;6180498;22;89175;-92
2023/09/20 02:59:39;;;;;;;5.10;1.58;;;16.20;99.90;;;;;;6181643;22;87755;-94
2023/09/20 03:02:05;;;;;;;6.68;1.55;;;16.20;99.90;;;;;;6180576;22;89871;-92
2023/09/20 03:04:32;;;;;;;7.43;1.50;;;16.20;99.90;;;;;;6178550;22;90153;-92
2023/09/20 03:06:58;;;;;;;5.25;1.30;;;16.20;99.90;;;;;;6179686;22;90074;-92
2023/09/20 03:09:24;;;;;;;4.45;1.58;;;16.20;99.90;;;;;;6178186;22;87485;-93
2023/09/20 03:11:55;;;;;;;6.38;1.30;;;16.10;99.90;;;;;;6177855;22;87635;-93
2023/09/20 03:14:23;;;;;;;8.85;1.65;;;16.10;99.90;;;;;;6177603;22;87714;-91
2023/09/20 03:16:49;;;;;;;6.05;1.33;;;16.10;99.90;;;;;;6175683;22;88561;-91
2023/09/20 03:19:14;;;;;;;6.20;1.60;;;16.20;99.90;;;;;;6177221;22;87845;-91
2023/09/20 03:21:43;;;;;;;7.13;1.65;;;16.10;99.90;;;;;;6177299;22;87194;-93
2023/09/20 03:24:09;;;;;;;5.10;1.67;;;16.10;99.90;;;;;;6176272;22;89549;-92
2023/09/20 03:26:35;;;;;;;4.15;1.55;;;16.10;99.90;;;;;;6176137;22;88595;-92
2023/09/20 03:29:04;;;;;;;6.22;1.67;;;16.10;99.90;;;;;;6176039;22;87634;-91
2023/09/20 03:31:34;;;;;;;3.55;1.30;;;16.10;99.90;;;;;;6174662;22;88116;-93
2023/09/20 03:33:59;;;;;;;5.78;1.48;;;16.20;99.90;;;;;;6176640;22;89594;-93
2023/09/20 03:36:26;;;;;;;3.80;1.50;;;16.10;99.90;;;;;;6175672;22;89955;-92
2023/09/20 03:38:54;;;;;;;7.53;1.90;;;16.10;99.90;;;;;;6175134;22;87824;-92
2023/09/20 03:41:20;;;;;;;3.90;1.48;;;16.10;99.90;;;;;;6174772;22;89068;-93
2023/09/20 03:43:47;;;;;;;4.68;1.75;;;16.20;99.90;;;;;;6176229;22;90058;-91
2023/09/20 03:46:13;;;;;;;5.82;1.88;;;16.20;99.90;;;;;;6173977;22;87568;-92
2023/09/20 03:48:39;;;;;;;4.22;1.48;;;16.10;99.90;;;;;;6178128;22;87546;-93
2023/09/20 03:51:05;;;;;;;4.75;1.20;;;16.20;99.90;;;;;;6176482;22;89318;-93
2023/09/20 03:53:34;;;;;;;4.40;1.77;;;16.10;99.90;;;;;;6175289;22;90330;-94
2023/09/20 03:56:02;;;;;;;5.43;1.63;;;16.10;99.90;;;;;;6177422;22;87208;-94
2023/09/20 03:58:28;;;;;;;11.57;1.92;;;16.10;99.90;;;;;;6176161;22;88045;-92
2023/09/20 04:00:56;;;;;;;8.77;1.67;;;16.10;99.90;;;;;;6177394;22;87586;-91
2023/09/20 04:03:22;;;;;;;4.53;1.60;;;16.10;99.90;;;;;;6176996;22;89273;-91
2023/09/20 04:05:48;;;;;;;8.73;2.10;;;16.10;99.90;;;;;;6175415;22;90385;-92
2023/09/20 04:08:16;;;;;;;8.20;1.67;;;16.10;99.90;;;;;;6176198;22;86632;-93
2023/09/20 04:10:42;;;;;;;5.38;1.40;;;16.10;99.90;;;;;;6176453;22;88369;-91
2023/09/20 04:13:08;;;;;;;3.92;1.83;;;16.10;99.90;;;;;;6177257;22;88230;-91
2023/09/20 04:15:33;;;;;;;6.63;2.05;;;16.10;99.90;;;;;;6176552;22;89891;-90
2023/09/20 04:18:01;;;;;;;4.15;1.50;;;16.10;99.90;;;;;;6176102;22;86995;-91
2023/09/20 04:20:26;;;;;;;6.45;1.70;;;16.10;99.90;;;;;;6175042;22;87818;-93
2023/09/20 04:22:52;;;;;;;5.32;1.50;;;16.10;99.90;;;;;;6176021;22;89137;-91
2023/09/20 04:25:18;;;;;;;5.05;1.55;;;16.10;99.90;;;;;;6176239;22;90796;-92
2023/09/20 04:27:46;;;;;;;3.25;1.75;;;16.10;99.90;;;;;;6179300;22;87783;-91
2023/09/20 04:30:13;;;;;;;12.40;2.10;;;16.10;99.90;;;;;;6176071;22;88238;-92
2023/09/20 04:32:40;;;;;;;9.35;1.38;;;16.10;99.90;;;;;;6177249;22;89326;-92
2023/09/20 04:35:06;;;;;;;4.43;1.38;;;16.10;99.90;;;;;;6175644;22;87731;-92
2023/09/20 04:37:32;;;;;;;5.75;1.50;;;16.10;99.90;;;;;;6177218;22;87671;-92
2023/09/20 04:39:58;;;;;;;7.32;1.40;;;16.00;99.90;;;;;;6176439;22;88614;-93
2023/09/20 04:42:24;;;;;;;5.32;1.67;;;16.10;99.90;;;;;;6176129;22;90630;-92
2023/09/20 04:44:49;;;;;;;6.28;1.88;;;16.00;99.90;;;;;;6179309;22;89595;-93
2023/09/20 04:47:17;;;;;;;8.20;2.28;;;16.10;99.90;;;;;;6175711;22;87392;-91
2023/09/20 04:49:42;;;;;;;7.35;2.15;;;16.00;99.90;;;;;;6175938;22;88891;-93
2023/09/20 04:52:11;;;;;;;4.72;1.80;;;16.00;99.90;;;;;;6177874;22;90543;-92
2023/09/20 04:54:39;;;;;;;6.13;2.00;;;16.00;99.90;;;;;;6176136;22;89695;-94
2023/09/20 04:57:05;;;;;;;7.72;1.70;;;16.00;99.90;;;;;;6181420;22;86401;-93
2023/09/20 04:59:36;;;;;;;5.07;1.80;;;16.00;99.90;;;;;;6176418;22;87021;-91
2023/09/20 05:02:03;;;;;;;4.45;1.88;;;16.00;99.90;;;;;;6179175;22;88753;-93
2023/09/20 05:04:29;;;;;;;6.28;1.55;;;16.00;99.90;;;;;;6178887;22;88982;-91
2023/09/20 05:06:55;;;;;;;13.65;2.13;;;15.90;99.90;;;;;;6182524;22;87766;-91
2023/09/20 05:09:21;;;;;;;5.95;2.20;;;15.90;99.90;;;;;;6179368;22;87962;-91
2023/09/20 05:11:46;;;;;;;7.70;2.60;;;15.90;99.90;;;;;;6180449;22;89208;-92
2023/09/20 05:14:12;;;;;;;7.65;1.90;;;15.90;99.90;;;;;;6180041;22;89063;-91
2023/09/20 05:16:37;;;;;;;7.15;1.85;;;15.90;99.90;;;;;;6180262;22;87272;-91
2023/09/20 05:19:05;;;;;;;5.03;1.75;;;15.80;99.90;;;;;;6180937;22;87307;-91
2023/09/20 05:21:31;;;;;;;9.65;2.10;;;15.90;99.90;;;;;;6180262;22;92557;-91
2023/09/20 05:23:57;;;;;;;5.25;1.83;;;15.80;99.90;;;;;;6182392;22;89472;-91
2023/09/20 05:26:23;;;;;;;5.80;2.08;;;15.80;99.90;;;;;;6180261;22;87461;-88
2023/09/20 05:28:48;;;;;;;5.95;2.03;;;15.90;99.90;;;;;;6179356;22;90557;-91
2023/09/20 05:31:15;;;;;;;7.30;1.65;;;15.80;99.90;;;;;;6177672;22;90144;-92
2023/09/20 05:33:41;;;;;;;3.53;1.60;;;15.80;99.90;;;;;;6181503;22;89990;-91
2023/09/20 05:36:07;;;;;;;3.60;1.73;;;15.80;99.90;;;;;;6181361;22;87358;-91
2023/09/20 05:38:32;;;;;;;6.32;2.13;;;15.90;99.90;;;;;;6179558;22;87910;-90
2023/09/20 05:40:58;;;;;;;5.40;1.80;;;15.80;99.90;;;;;;6177694;22;90042;-91
2023/09/20 05:43:24;;;;;;;4.18;2.10;;;15.90;99.90;;;;;;6176163;22;90570;-91
2023/09/20 05:45:49;;;;;;;3.33;1.55;;;15.80;99.90;;;;;;6178703;22;86952;-92
2023/09/20 05:48:16;;;;;;;5.43;1.73;;;15.90;99.90;;;;;;6179895;22;88946;-89
2023/09/20 05:50:42;;;;;;;6.07;2.00;;;15.90;99.90;;;;;;6177019;22;90177;-92
2023/09/20 05:53:14;;;;;;;5.95;1.73;;;15.80;99.90;;;;;;6182173;22;89669;-94
2023/09/20 05:55:40;;;;;;;3.90;1.73;;;15.80;99.90;;;;;;6158621;22;87709;-95
2023/09/20 05:58:07;;;;;;;10.15;3.45;;;15.80;99.90;;;;;;6184910;22;86936;-95
2023/09/20 06:00:36;;;;;;;5.18;2.35;;;15.90;99.90;;;;;;6185408;22;90515;-94
2023/09/20 06:03:12;;;;;;;7.55;2.00;;;15.90;99.90;;;;;;6150216;22;88934;-95
2023/09/20 06:05:39;;;;;;;4.90;2.05;;;15.90;99.90;;;;;;6178318;22;87565;-94
2023/09/20 06:08:07;;;;;;;5.15;1.52;;;15.90;99.90;;;;;;6184337;22;88347;-94
2023/09/20 06:10:33;;;;;;;6.60;2.00;;;16.00;99.90;;;;;;6179503;22;89225;-93
2023/09/20 06:12:59;;;;;;;5.82;1.92;;;16.00;99.90;;;;;;6185221;22;88432;-94
2023/09/20 06:15:26;;;;;;;5.55;1.95;;;16.00;99.90;;;;;;6176073;22;87578;-94
2023/09/20 06:17:52;;;;;;;4.15;1.52;;;16.00;99.90;;;;;;6168770;22;88536;-94
2023/09/20 06:20:19;;;;;;;4.47;1.70;;;16.10;99.90;;;;;;6177280;22;89353;-93
2023/09/20 06:22:48;;;;;;;8.70;1.70;;;16.10;99.90;;;;;;6184813;22;88769;-94
2023/09/20 06:25:19;;;;;;;3.28;1.80;;;16.20;99.90;;;;;;6185814;22;87674;-94
2023/09/20 06:27:50;;;;;;;7.00;2.28;;;16.20;99.90;;;;;;6187789;22;87751;-94
2023/09/20 06:30:21;;;;;;;3.97;1.85;;;16.30;99.90;;;;;;6187951;22;88087;-94
2023/09/20 06:32:47;;;;;;;5.18;1.90;;;16.30;99.90;;;;;;6186114;22;89104;-95
2023/09/20 06:35:19;;;;;;;7.97;1.88;;;16.40;99.90;;;;;;6176864;22;86950;-94
2023/09/20 06:37:52;;;;;;;5.67;2.07;;;16.40;99.90;;;;;;6196667;22;87967;-95
2023/09/20 06:40:34;;;;;;;9.50;2.45;;;16.50;99.90;;;;;;6186057;22;87651;-93
2023/09/20 06:43:03;;;;;;;8.75;2.28;;;16.50;99.90;;;;;;6185556;22;88843;-94
2023/09/20 06:45:52;;;;;;;4.60;1.58;;;16.50;99.90;;;;;;6187687;22;87128;-94
2023/09/20 06:48:22;;;;;;;6.93;2.20;;;16.50;99.90;;;;;;6185109;22;87466;-95
2023/09/20 06:50:55;;;;;;;4.10;1.67;;;16.60;99.90;;;;;;6184431;22;88972;-92
2023/09/20 06:53:23;;;;;;;3.43;2.03;;;16.60;99.90;;;;;;6183438;22;88624;-94
2023/09/20 06:55:50;;;;;;;6.18;1.77;;;16.60;99.90;;;;;;6183835;22;87637;-95
2023/09/20 06:58:16;;;;;;;3.65;1.65;;;16.70;99.90;;;;;;6184538;22;88117;-94
2023/09/20 07:00:43;;;;;;;6.43;1.85;;;16.70;99.90;;;;;;6188090;22;88571;-95
2023/09/20 07:03:09;;;;;;;6.47;2.13;;;16.80;99.90;;;;;;6186228;22;88276;-93
2023/09/20 07:05:36;;;;;;;7.30;1.75;;;16.80;99.90;;;;;;6184251;22;87512;-93
2023/09/20 07:08:03;;;;;;;5.68;1.63;;;16.90;99.90;;;;;;6179148;22;89457;-93
2023/09/20 07:10:36;;;;;;;4.07;1.85;;;17.00;99.90;;;;;;6175802;22;89059;-94
2023/09/20 07:13:05;;;;;;;4.72;1.88;;;17.10;99.90;;;;;;6151362;22;89548;-94
2023/09/20 07:15:35;;;;;;;7.40;1.70;;;17.10;99.90;;;;;;6203192;22;87579;-93
2023/09/20 07:18:01;;;;;;;3.78;1.80;;;17.20;99.90;;;;;;6176298;22;88064;-93
2023/09/20 07:20:31;;;;;;;8.10;2.22;;;17.20;99.90;;;;;;6178362;22;90257;-94
2023/09/20 07:22:58;;;;;;;9.05;1.95;;;17.20;99.90;;;;;;6175064;22;88878;-95
2023/09/20 07:25:27;;;;;;;5.93;2.13;;;17.30;99.90;;;;;;6176813;22;86411;-95
2023/09/20 07:27:55;;;;;;;4.72;2.03;;;17.30;99.90;;;;;;6177548;22;89016;-96
2023/09/20 07:30:22;;;;;;;5.82;1.90;;;17.30;99.90;;;;;;6175155;22;90522;-94
2023/09/20 07:32:51;;;;;;;7.40;2.00;;;17.40;99.90;;;;;;6164801;22;89436;-94
2023/09/20 07:35:26;;;;;;;6.88;1.77;;;17.40;99.90;;;;;;6177247;22;87827;-93
2023/09/20 07:37:57;;;;;;;4.65;2.08;;;17.50;99.90;;;;;;6182691;22;88364;-95
2023/09/20 07:40:35;;;;;;;7.10;1.92;;;17.60;99.90;;;;;;6177382;22;90424;-93
2023/09/20 07:43:06;;;;;;;7.43;2.10;;;17.70;99.90;;;;;;6180531;22;90508;-96
2023/09/20 07:45:41;;;;;;;9.75;1.92;;;17.80;99.90;;;;;;6179531;22;87280;-95
2023/09/20 07:48:12;;;;;;;4.05;1.70;;;17.90;99.90;;;;;;6176267;22;88452;-94
2023/09/20 07:50:51;;;;;;;7.95;2.08;;;17.90;99.90;;;;;;6177606;22;89615;-96
2023/09/20 07:53:21;;;;;;;7.70;1.80;;;18.00;99.80;;;;;;6179437;22;89239;-94
2023/09/20 07:55:58;;;;;;;4.95;1.67;;;18.20;99.90;;;;;;6176656;22;87489;-94
2023/09/20 07:58:23;;;;;;;7.15;1.73;;;18.30;99.40;;;;;;6167812;22;88366;-94
2023/09/20 08:00:56;;;;;;;4.18;1.90;;;18.40;99.50;;;;;;6201179;22;88054;-95
2023/09/20 08:03:22;;;;;;;4.68;1.50;;;18.50;99.40;;;;;;6178959;22;89906;-94
2023/09/20 08:05:52;;;;;;;6.60;1.88;;;18.60;99.40;;;;;;6176888;22;87437;-94
2023/09/20 08:08:18;;;;;;;5.60;1.30;;;18.80;99.10;;;;;;6150585;22;87576;-96
2023/09/20 08:10:44;;;;;;;3.17;1.27;;;19.00;98.20;;;;;;6177153;22;90217;-94
2023/09/20 08:13:11;;;;;;;5.50;1.20;;;19.10;98.20;;;;;;6178244;22;89920;-95
2023/09/20 08:15:43;;;;;;;5.47;1.50;;;19.20;97.30;;;;;;6155301;22;86545;-96
2023/09/20 08:21:18;;;;;;;4.10;1.10;;;19.40;96.90;;;;;;6187083;22;87158;-96
2023/09/20 08:59:54;;;;;;;3.42;0.85;;;20.60;94.90;;;;;;6181524;22;87439;-93
2023/09/20 09:02:24;;;;;;;2.90;0.93;;;20.60;94.90;;;;;;6177790;22;89636;-93
2023/09/20 09:04:53;;;;;;;4.78;1.02;;;20.60;94.90;;;;;;6154012;22;90414;-92
2023/09/20 09:07:19;;;;;;;6.00;0.80;;;20.70;94.80;;;;;;6175252;22;87729;-93
2023/09/20 09:09:49;;;;;;;2.70;0.75;;;20.70;94.70;;;;;;6184133;22;86462;-94
2023/09/20 09:12:15;;;;;;;5.55;1.13;;;20.80;94.50;;;;;;6180523;22;88089;-95
2023/09/20 09:14:41;;;;;;;5.05;0.80;;;20.80;94.20;;;;;;6180764;22;89457;-95
2023/09/20 09:17:08;;;;;;;1.45;0.60;;;20.80;94.20;;;;;;6181016;22;90431;-94
2023/09/20 09:19:38;;;;;;;4.32;1.17;;;20.80;94.20;;;;;;6180377;22;87752;-94
2023/09/20 09:22:09;;;;;;;2.72;0.68;;;20.70;94.10;;;;;;6176474;22;87711;-94
2023/09/20 09:24:43;;;;;;;2.08;0.68;;;20.70;93.60;;;;;;6179006;22;88559;-94
2023/09/20 09:27:10;;;;;;;2.33;0.70;;;20.70;93.90;;;;;;6177183;22;89247;-94
2023/09/20 09:29:37;;;;;;;1.27;0.57;;;20.70;93.90;;;;;;6176846;22;87834;-93
2023/09/20 09:32:04;;;;;;;5.47;0.80;;;20.70;93.80;;;;;;6175210;22;89139;-94
2023/09/20 09:34:31;;;;;;;4.60;0.85;;;20.70;93.50;;;;;;6176237;22;86945;-94
2023/09/20 09:36:57;;;;;;;3.33;0.50;;;20.80;93.10;;;;;;6179098;22;89194;-93
2023/09/20 09:39:26;;;;;;;2.40;0.63;;;20.90;93.20;;;;;;6176159;22;87376;-93
2023/09/20 09:41:53;;;;;;;2.22;0.60;;;20.80;93.30;;;;;;6174935;22;89341;-95
2023/09/20 09:44:21;;;;;;;1.95;0.60;;;20.90;93.10;;;;;;6175890;22;90853;-94
2023/09/20 09:46:47;;;;;;;1.70;0.70;;;21.00;92.80;;;;;;6175077;22;89068;-93
2023/09/20 09:49:16;;;;;;;4.82;0.90;;;21.00;93.70;;;;;;6174724;22;87246;-93
2023/09/20 09:51:46;;;;;;;2.28;0.65;;;21.00;93.40;;;;;;6174960;22;87932;-94
2023/09/20 09:54:15;;;;;;;3.20;0.60;;;21.00;92.70;;;;;;6174836;22;89147;-94
2023/09/20 09:56:42;;;;;;;4.10;0.70;;;21.00;93.30;;;;;;6174447;22;90958;-94
2023/09/20 09:59:08;;;;;;;5.00;0.82;;;21.10;93.30;;;;;;6174883;22;87147;-94
2023/09/20 10:01:38;;;;;;;2.95;0.70;;;21.20;92.50;;;;;;6174899;22;87755;-94
2023/09/20 10:04:10;;;;;;;3.90;0.82;;;21.30;92.20;;;;;;6177389;22;87659;-94
2023/09/20 10:06:44;;;;;;;2.22;0.50;;;21.20;92.30;;;;;;6133861;22;93342;-94
2023/09/20 10:09:12;;;;;;;2.42;0.60;;;21.30;92.30;;;;;;6177299;22;87248;-93
2023/09/20 10:11:39;;;;;;;5.18;0.82;;;21.30;92.40;;;;;;6174625;22;87688;-95
2023/09/20 10:14:10;;;;;;;3.13;0.60;;;21.30;92.20;;;;;;6174947;22;89460;-95
2023/09/20 10:16:38;;;;;;;4.47;0.80;;;21.20;92.40;;;;;;6175472;22;88193;-92
2023/09/20 10:19:10;;;;;;;2.30;0.40;;;21.20;92.10;;;;;;6175283;22;87485;-94
2023/09/20 10:21:37;;;;;;;4.13;0.50;;;21.20;92.90;;;;;;6175021;22;93750;-94
2023/09/20 10:24:07;;;;;;;1.67;0.70;;;21.20;93.00;;;;;;6175324;22;90256;-95
2023/09/20 10:26:35;;;;;;;3.00;0.80;;;21.20;92.60;;;;;;6173341;22;89055;-95
2023/09/20 10:29:23;;;;;;;5.10;0.73;;;21.20;92.70;;;;;;6174171;22;87064;-92
2023/09/20 10:31:49;;;;;;;3.83;0.70;;;21.20;92.60;;;;;;6175012;22;88901;-94
2023/09/20 10:34:19;;;;;;;3.10;0.82;;;21.10;92.50;;;;;;6178212;22;90687;-94
2023/09/20 10:36:52;;;;;;;2.38;1.25;;;21.10;92.30;;;;;;6174314;22;89197;-93
2023/09/20 10:39:18;;;;;;;3.78;0.90;;;21.10;92.90;;;;;;6173001;22;86968;-93
2023/09/20 10:41:45;;;;;;;4.88;1.08;;;21.10;92.70;;;;;;6174051;22;89024;-94
2023/09/20 10:44:24;;;;;;;4.95;0.77;;;21.10;92.40;;;;;;6177776;22;89402;-94
2023/09/20 10:46:50;;;;;;;4.65;1.15;;;21.10;93.00;;;;;;6174337;22;94149;-95
2023/09/20 10:49:16;;;;;;;3.33;1.00;;;21.20;92.50;;;;;;6179823;22;86739;-94
2023/09/20 10:51:48;;;;;;;3.28;0.63;;;21.10;93.20;;;;;;6181155;22;87982;-93
2023/09/20 10:54:19;;;;;;;2.30;0.80;;;21.10;93.20;;;;;;6184017;22;89529;-92
2023/09/20 10:56:53;;;;;;;2.85;1.10;;;21.00;92.70;;;;;;6181695;22;89259;-96
2023/09/20 10:59:27;;;;;;;2.65;0.70;;;21.00;92.70;;;;;;6187571;22;87600;-95
2023/09/20 11:02:03;;;;;;;;;;;21.00;92.00;;;;;;6182543;22;88191;-95
2023/09/20 11:04:32;;;;;;;3.20;0.65;;;20.90;91.80;;;;;;6187591;22;90608;-96
2023/09/20 11:06:59;;;;;;;5.82;1.00;;;20.90;92.10;;;;;;6177700;22;88657;-94
2023/09/20 11:09:31;;;;;;;3.47;1.08;;;20.90;92.70;;;;;;6172793;22;87846;-94
2023/09/20 11:12:03;;;;;;;2.08;0.82;;;21.00;92.50;;;;;;6172217;22;88973;-95
2023/09/20 11:14:32;;;;;;;3.25;0.50;;;21.00;91.90;;;;;;6175071;22;89556;-96
2023/09/20 11:16:58;;;;;;;3.10;0.90;;;21.00;92.00;;;;;;6130887;22;88336;-94
2023/09/20 11:19:25;;;;;;;3.45;0.90;;;20.90;91.90;;;;;;6178616;22;87611;-95
2023/09/20 11:21:50;;;;;;;2.75;0.70;;;20.90;92.20;;;;;;6149011;22;88960;-91
2023/09/20 11:24:16;;;;;;;7.00;1.17;;;20.90;91.70;;;;;;6172206;22;89192;-93
2023/09/20 11:26:47;;;;;;;2.92;1.00;;;20.90;91.90;;;;;;6168990;22;89085;-92
2023/09/20 11:29:15;;;;;;;3.20;0.95;;;20.80;91.50;;;;;;6172944;22;87935;-92
2023/09/20 11:31:46;;;;;;;2.63;0.70;;;20.80;91.50;;;;;;6172190;22;87584;-93
2023/09/20 11:34:14;;;;;;;2.80;0.82;;;20.80;91.60;;;;;;6148566;22;89153;-91
2023/09/20 11:36:44;;;;;;;3.90;0.98;;;20.80;92.10;;;;;;6172643;22;89929;-91
2023/09/20 11:39:14;;;;;;;2.70;0.90;;;20.90;91.90;;;;;;6172518;22;86872;-91
2023/09/20 11:41:43;;;;;;;4.75;0.98;;;20.90;91.50;;;;;;6174720;22;88278;-93
2023/09/20 11:44:08;;;;;;;1.75;0.52;;;21.00;91.60;;;;;;6172938;22;89828;-93
2023/09/20 11:46:34;;;;;;;2.75;0.68;;;21.10;91.40;;;;;;6170789;22;90265;-93
2023/09/20 11:49:02;;;;;;;2.00;0.73;;;21.20;91.60;;;;;;6173821;22;87041;-94
2023/09/20 11:51:40;;;;;;;3.53;0.77;;;21.20;91.10;;;;;;6172726;22;88013;-94
2023/09/20 11:54:06;;;;;;;3.03;0.80;;;21.30;90.70;;;;;;6177198;22;89504;-92
2023/09/20 11:56:34;;;;;;;2.08;0.70;;;21.40;91.00;;;;;;6176993;22;90254;-95
2023/09/20 11:59:09;;;;;;;3.58;0.68;;;21.50;90.50;;;;;;6164427;22;87170;-89
2023/09/20 12:01:40;;;;;;;3.05;0.55;;;21.60;90.50;;;;;;6163147;22;88061;-88
2023/09/20 12:04:09;;;;;;;3.60;0.70;;;21.60;90.10;;;;;;6172492;22;88259;-88
2023/09/20 12:06:37;;;;;;;4.40;0.63;;;21.60;90.40;;;;;;6169572;22;89324;-95
2023/09/20 12:09:06;;;;;;;3.17;0.60;;;21.70;90.20;;;;;;6174949;22;87728;-92
2023/09/20 12:11:32;;;;;;;3.00;1.05;;;21.70;89.50;;;;;;6171726;22;89199;-92
2023/09/20 12:13:58;;;;;;;2.17;0.70;;;21.90;90.20;;;;;;6172115;22;89414;-92
2023/09/20 12:16:23;;;;;;;3.13;0.80;;;22.00;90.90;;;;;;6172150;22;89189;-92
2023/09/20 12:18:50;;;;;;;2.88;0.80;;;22.00;89.30;;;;;;6174524;22;87508;-94
2023/09/20 12:21:16;;;;;;;4.30;0.82;;;22.10;89.20;;;;;;6173569;22;89599;-92
2023/09/20 12:23:42;;;;;;;5.25;1.88;;;22.10;90.00;;;;;;6174055;22;87750;-91
2023/09/20 12:26:08;;;;;;;5.88;1.35;;;22.10;89.70;;;;;;6170866;22;90167;-90
2023/09/20 12:28:38;;;;;;;4.60;1.05;;;22.20;89.70;;;;;;6173411;22;86724;-92
2023/09/20 12:31:04;;;;;;;4.13;0.85;;;22.20;87.70;;;;;;6174362;22;88042;-92
2023/09/20 12:33:31;;;;;;;3.70;0.80;;;22.20;88.10;;;;;;6175601;22;94194;-92
2023/09/20 12:35:59;;;;;;;3.25;0.98;;;22.20;88.90;;;;;;6180274;22;90949;-93
2023/09/20 12:38:29;;;;;;;3.88;0.55;;;22.20;86.20;;;;;;6183544;22;87670;-92
2023/09/20 12:40:56;;;;;;;1.00;0.63;;;22.40;88.20;;;;;;6181862;22;87844;-92
2023/09/20 12:43:21;;;;;;;3.30;0.70;;;22.60;87.50;;;;;;6178861;22;90125;-92
2023/09/20 12:45:47;;;;;;;2.70;0.90;;;22.70;85.60;;;;;;6181263;22;88991;-93
2023/09/20 12:48:14;;;;;;;3.42;0.90;;;22.80;86.00;;;;;;6180047;22;87397;-92
2023/09/20 12:50:41;;;;;;;2.28;0.70;;;22.90;84.20;;;;;;6180110;22;88366;-92
2023/09/20 12:53:09;;;;;;;5.95;1.42;;;22.90;85.40;;;;;;6175884;22;87144;-94
2023/09/20 12:55:37;;;;;;;3.35;0.65;;;22.80;83.50;;;;;;6172636;22;88196;-93
2023/09/20 12:58:03;;;;;;;3.67;0.77;;;22.70;84.30;;;;;;6173137;22;88063;-88
2023/09/20 13:00:29;;;;;;;4.30;1.17;;;22.70;84.30;;;;;;6171675;22;88469;-88
2023/09/20 13:02:57;;;;;;;4.15;1.02;;;22.60;85.70;;;;;;6171741;22;89372;-89
2023/09/20 13:05:23;;;;;;;2.15;0.80;;;22.60;85.60;;;;;;6171658;22;89424;-92
2023/09/20 13:07:48;;;;;;;2.22;0.90;;;22.70;85.50;;;;;;6171806;22;87306;-89
2023/09/20 13:10:19;;;;;;;2.58;1.00;;;22.70;84.30;;;;;;6173026;22;87851;-88
2023/09/20 13:12:44;;;;;;;5.97;0.77;;;22.70;84.40;;;;;;6174579;22;89226;-88
2023/09/20 13:15:14;;;;;;;3.72;1.05;;;22.70;83.90;;;;;;6172059;22;88590;-90
2023/09/20 13:17:44;;;;;;;4.90;1.08;;;22.70;84.40;;;;;;6172445;22;87605;-88
2023/09/20 13:20:13;;;;;;;1.83;0.70;;;22.80;85.10;;;;;;6171605;22;88341;-89
2023/09/20 13:22:42;;;;;;;1.38;0.60;;;22.90;84.80;;;;;;6171141;22;88875;-87
2023/09/20 13:25:09;;;;;;;2.83;0.98;;;23.00;84.50;;;;;;6169897;22;90211;-88
2023/09/20 13:27:38;;;;;;;4.95;0.98;;;23.10;84.10;;;;;;6172233;22;87130;-86
2023/09/20 13:30:10;;;;;;;5.47;0.90;;;23.40;84.20;;;;;;6171432;22;88267;-87
2023/09/20 13:32:36;;;;;;;3.33;0.90;;;23.70;82.00;;;;;;6172723;22;90735;-88
2023/09/20 13:35:03;;;;;;;2.55;1.20;;;24.00;81.00;;;;;;6172088;22;89621;-88
2023/09/20 13:37:29;;;;;;;4.10;1.02;;;24.20;79.30;;;;;;6171118;22;87597;-88
2023/09/20 13:39:56;;;;;;;3.25;1.08;;;24.60;78.80;;;;;;6171448;22;87665;-89
2023/09/20 13:42:21;;;;;;;18.13;1.38;;;24.80;76.50;;;;;;6159249;22;89229;-89
2023/09/20 13:44:50;;;;;;;4.78;0.85;;;25.00;78.70;;;;;;6162777;22;88034;-89
2023/09/20 13:47:18;;;;;;;2.40;0.80;;;25.40;75.40;;;;;;6172510;22;87609;-89
2023/09/20 13:49:44;;;;;;;3.28;0.85;;;25.60;72.70;;;;;;6171442;22;88837;-89
2023/09/20 13:52:10;;;;;;;2.20;0.90;;;25.60;73.00;;;;;;6172247;22;90090;-89
2023/09/20 13:54:37;;;;;;;5.00;1.00;;;25.60;72.30;;;;;;6172569;22;90399;-88
2023/09/20 13:57:02;;;;;;;2.35;0.90;;;25.50;72.20;;;;;;6171610;22;87887;-87
2023/09/20 13:59:31;;;;;;;1.67;0.85;;;25.60;72.40;;;;;;6172083;22;88636;-88
2023/09/20 14:02:00;;;;;;;2.97;0.90;;;25.30;71.70;;;;;;6172323;22;89270;-90
2023/09/20 14:04:28;;;;;;;4.13;0.90;;;25.10;73.50;;;;;;6172097;22;88853;-88
2023/09/20 14:06:55;;;;;;;2.28;0.93;;;25.00;75.00;;;;;;6172434;22;86787;-88
2023/09/20 14:09:22;;;;;;;5.10;1.20;;;25.20;75.20;;;;;;6171239;22;89264;-89
2023/09/20 14:11:48;;;;;;;2.95;0.95;;;25.50;72.20;;;;;;6170057;22;89062;-88
2023/09/20 14:14:16;;;;;;;3.28;1.02;;;25.60;71.50;;;;;;6170284;22;90329;-86
2023/09/20 14:16:42;;;;;;;5.22;1.88;;;25.60;71.70;;;;;;6170747;22;87291;-88
2023/09/20 14:19:09;;;;;;;4.53;1.02;;;25.60;69.50;;;;;;6170539;22;87609;-89
2023/09/20 14:21:35;;;;;;;3.78;1.08;;;25.50;67.80;;;;;;6172760;22;87916;-89
2023/09/20 14:24:03;;;;;;;3.25;1.05;;;25.60;68.70;;;;;;6171132;22;89594;-88
2023/09/20 14:26:29;;;;;;;5.65;1.05;;;25.60;68.10;;;;;;6170147;22;87590;-88
2023/09/20 14:28:56;;;;;;;3.58;1.20;;;25.80;68.80;;;;;;6172033;22;89209;-88
2023/09/20 14:31:22;;;;;;;4.93;1.20;;;26.00;66.80;;;;;;6171865;22;89239;-88
2023/09/20 14:33:48;;;;;;;2.65;1.13;;;26.10;67.70;;;;;;6172151;22;88838;-89
2023/09/20 14:36:16;;;;;;;5.13;1.50;;;26.10;66.40;;;;;;6171842;22;87155;-88
2023/09/20 14:38:42;;;;;;;2.58;1.08;;;26.10;67.00;;;;;;6171617;22;89059;-88
2023/09/20 14:41:08;;;;;;;3.05;1.00;;;26.30;66.70;;;;;;6171234;22;87839;-88
2023/09/20 14:43:36;;;;;;;2.15;0.82;;;26.50;65.60;;;;;;6171083;22;89592;-88
2023/09/20 14:46:05;;;;;;;3.20;1.30;;;26.50;63.70;;;;;;6172740;22;87525;-86
2023/09/20 14:48:32;;;;;;;4.65;1.30;;;26.60;61.60;;;;;;6171659;22;92387;-89
2023/09/20 14:51:01;;;;;;;3.15;1.15;;;26.70;63.70;;;;;;6171471;22;88867;-89
2023/09/20 14:53:30;;;;;;;2.45;1.30;;;26.90;62.70;;;;;;6171729;22;90263;-88
2023/09/20 14:55:56;;;;;;;4.85;1.27;;;26.90;62.10;;;;;;6171553;22;86726;-89
2023/09/20 14:58:22;;;;;;;2.65;0.98;;;26.80;62.80;;;;;;6171479;22;89473;-87
2023/09/20 15:00:49;;;;;;;2.95;1.13;;;26.50;62.90;;;;;;6172961;22;88036;-90
2023/09/20 15:03:16;;;;;;;3.55;1.30;;;26.30;64.10;;;;;;6171824;22;90170;-88
2023/09/20 15:05:42;;;;;;;4.78;1.30;;;26.00;64.90;;;;;;6171479;22;87585;-89
2023/09/20 15:08:08;;;;;;;2.42;1.13;;;25.80;64.50;;;;;;6172280;22;89503;-88
2023/09/20 15:10:36;;;;;;;3.88;1.08;;;25.70;66.10;;;;;;6170036;22;88814;-96
2023/09/20 15:13:03;;;;;;;3.53;1.35;;;25.60;66.10;;;;;;6171947;22;89967;-90
2023/09/20 15:15:30;;;;;;;4.80;1.40;;;25.40;67.10;;;;;;6171817;22;87494;-90
2023/09/20 15:17:56;;;;;;;4.07;1.20;;;25.30;67.70;;;;;;6173411;22;87371;-90